Time;durP1;ratioP1;P1;durP2;ratioP2;P2;SDS_P1;SDS_P2;PMS_P1;PMS_P2;Temp;Humidity;BMP_temperature;BMP_pressure;BME280_temperature;BME280_humidity;BME280_pressure;Samples;Min_cycle;Max_cycle;Signal;HPM_P1;HPM_P2
2023/03/14 00:01:29;;;;;;;;;;;;;;;0.69;61.58;93631.78;5033147;28;19917;-38
2023/03/14 00:03:54;;;;;;;;;;;;;;;0.83;60.68;93632.88;5032860;28;20565;-38
2023/03/14 00:06:20;;;;;;;;;;;;;;;0.61;62.17;93617.13;5032771;28;19970;-38
2023/03/14 00:08:45;;;;;;;;;;;;;;;0.50;62.30;93620.47;5032798;28;20385;-38
2023/03/14 00:11:15;;;;;;;;;;;;;;;0.48;63.45;93614.03;5032815;28;19928;-38
2023/03/14 00:13:40;;;;;;;;;;;;;;;0.59;63.07;93614.88;5032787;28;19913;-38
2023/03/14 00:16:06;;;;;;;;;;;;;;;0.54;63.38;93621.00;5032666;28;19920;-38
2023/03/14 00:18:31;;;;;;;;;;;;;;;0.54;61.62;93614.84;5032706;28;20418;-38
2023/03/14 00:20:58;;;;;;;;;;;;;;;0.61;62.08;93608.97;5032504;28;20004;-38
2023/03/14 00:23:23;;;;;;;;;;;;;;;0.63;61.67;93606.50;5032461;28;20012;-38
2023/03/14 00:25:49;;;;;;;;;;;;;;;0.56;63.08;93607.69;5032321;28;20011;-38
2023/03/14 00:28:14;;;;;;;;;;;;;;;0.62;59.90;93605.03;5027775;28;19955;-38
2023/03/14 00:30:39;;;;;;;;;;;;;;;0.82;60.47;93604.97;5012650;28;20437;-38
2023/03/14 00:33:05;;;;;;;;;;;;;;;0.64;62.86;93611.47;5035516;28;20412;-38
2023/03/14 00:35:30;;;;;;;;;;;;;;;0.77;60.80;93614.56;5052269;28;20027;-38
2023/03/14 00:37:55;;;;;;;;;;;;;;;0.36;63.43;93598.84;5051951;28;20274;-38
2023/03/14 00:40:20;;;;;;;;;;;;;;;0.56;61.79;93602.25;5052048;28;19923;-38
2023/03/14 00:42:46;;;;;;;;;;;;;;;0.41;62.05;93596.19;5052045;28;19999;-38
2023/03/14 00:45:11;;;;;;;;;;;;;;;0.37;62.56;93589.50;5052110;28;20376;-38
2023/03/14 00:47:37;;;;;;;;;;;;;;;0.36;63.74;93577.13;5051900;28;19947;-38
2023/03/14 00:50:02;;;;;;;;;;;;;;;0.38;62.09;93578.16;5048521;28;20320;-38
2023/03/14 00:52:27;;;;;;;;;;;;;;;0.06;64.26;93562.28;5031723;28;19914;-38
2023/03/14 00:54:52;;;;;;;;;;;;;;;0.07;63.55;93555.63;5031592;28;20008;-38
2023/03/14 00:57:18;;;;;;;;;;;;;;;0.13;63.52;93551.00;5047709;28;19913;-38
2023/03/14 00:59:43;;;;;;;;;;;;;;;-0.09;65.66;93546.81;5051397;28;20026;-38
2023/03/14 01:02:08;;;;;;;;;;;;;;;-0.02;63.92;93542.94;5051506;28;19917;-38
2023/03/14 01:04:34;;;;;;;;;;;;;;;-0.19;64.25;93550.16;5051389;28;19989;-38
2023/03/14 01:06:59;;;;;;;;;;;;;;;-0.13;67.19;93537.44;5042195;28;19917;-38
2023/03/14 01:09:25;;;;;;;;;;;;;;;-0.03;67.07;93541.47;5031489;28;20377;-38
2023/03/14 01:11:50;;;;;;;;;;;;;;;-0.10;66.19;93537.22;5031356;28;19921;-38
2023/03/14 01:14:15;;;;;;;;;;;;;;;-0.05;64.20;93533.06;5031416;28;19913;-38
2023/03/14 01:16:41;;;;;;;;;;;;;;;-0.22;64.97;93524.72;5031262;28;20004;-38
2023/03/14 01:19:07;;;;;;;;;;;;;;;-0.27;66.20;93535.53;5031507;28;19924;-38
2023/03/14 01:21:33;;;;;;;;;;;;;;;-0.45;68.71;93536.56;5031560;28;20432;-38
2023/03/14 01:23:58;;;;;;;;;;;;;;;-0.34;67.38;93539.41;5031521;28;19920;-38
2023/03/14 01:26:24;;;;;;;;;;;;;;;-0.24;66.71;93527.19;5031078;28;19917;-38
2023/03/14 01:28:50;;;;;;;;;;;;;;;-0.39;67.73;93529.22;5031126;28;19917;-38
2023/03/14 01:31:16;;;;;;;;;;;;;;;-0.51;68.31;93535.75;5030752;28;19939;-38
2023/03/14 01:33:41;;;;;;;;;;;;;;;-0.56;69.25;93539.16;5039839;28;19912;-38
2023/03/14 01:36:07;;;;;;;;;;;;;;;-0.74;70.35;93534.00;5050889;28;19967;-38
2023/03/14 01:38:33;;;;;;;;;;;;;;;-0.95;70.19;93530.53;5051109;28;20365;-38
2023/03/14 01:40:58;;;;;;;;;;;;;;;-0.89;70.32;93523.22;5050930;28;19935;-38
2023/03/14 01:43:26;;;;;;;;;;;;;;;-0.71;70.12;93526.91;5051122;28;19944;-38
2023/03/14 01:46:02;;;;;;;;;;;;;;;-0.96;72.99;93528.28;5051063;28;19920;-38
2023/03/14 01:48:28;;;;;;;;;;;;;;;-1.11;71.97;93528.34;5066009;28;19912;-38
2023/03/14 01:50:53;;;;;;;;;;;;;;;-0.84;71.81;93524.50;5057222;28;19921;-38
2023/03/14 01:53:21;;;;;;;;;;;;;;;-1.00;72.80;93520.38;5030664;28;19921;-38
2023/03/14 01:55:46;;;;;;;;;;;;;;;-1.13;74.00;93513.78;5048705;28;20642;-38
2023/03/14 01:58:12;;;;;;;;;;;;;;;-0.95;72.75;93519.69;5065960;28;19917;-38
2023/03/14 02:00:37;;;;;;;;;;;;;;;-0.95;73.73;93516.22;5047738;28;19921;-38
2023/03/14 02:03:05;;;;;;;;;;;;;;;-1.04;72.91;93508.25;5045963;28;20420;-38
2023/03/14 02:05:34;;;;;;;;;;;;;;;-1.04;73.70;93508.25;5046167;28;20000;-38
2023/03/14 02:08:00;;;;;;;;;;;;;;;-1.19;74.11;93505.56;5030707;28;19917;-38
2023/03/14 02:10:30;;;;;;;;;;;;;;;-1.29;74.15;93508.88;5046075;28;20378;-38
2023/03/14 02:12:55;;;;;;;;;;;;;;;-1.35;74.45;93514.22;5030373;28;19921;-38
2023/03/14 02:15:21;;;;;;;;;;;;;;;-1.46;75.06;93513.28;5046007;28;19919;-38
2023/03/14 02:17:46;;;;;;;;;;;;;;;-1.28;74.26;93507.66;5030146;28;20379;-38
2023/03/14 02:20:11;;;;;;;;;;;;;;;-1.40;74.10;93506.00;5045904;28;19921;-38
2023/03/14 02:22:37;;;;;;;;;;;;;;;-1.52;75.22;93509.75;5030302;28;19913;-38
2023/03/14 02:25:06;;;;;;;;;;;;;;;-1.51;75.27;93514.69;5045683;28;19940;-38
2023/03/14 02:27:31;;;;;;;;;;;;;;;-1.48;74.31;93518.44;5029938;28;19920;-38
2023/03/14 02:29:57;;;;;;;;;;;;;;;-1.52;75.54;93524.78;5030258;28;19913;-38
2023/03/14 02:32:23;;;;;;;;;;;;;;;-1.72;75.60;93519.31;5045265;28;19913;-38
2023/03/14 02:34:49;;;;;;;;;;;;;;;-1.83;76.15;93513.72;5047951;28;20336;-38
2023/03/14 02:37:15;;;;;;;;;;;;;;;-1.69;76.46;93512.94;5049601;28;20333;-38
2023/03/14 02:39:41;;;;;;;;;;;;;;;-1.61;76.48;93519.50;5065398;28;19920;-38
2023/03/14 02:42:07;;;;;;;;;;;;;;;-1.92;77.25;93515.75;5065302;28;19912;-38
2023/03/14 02:44:32;;;;;;;;;;;;;;;-1.93;77.34;93509.63;5049841;28;20396;-38
2023/03/14 02:46:57;;;;;;;;;;;;;;;-1.90;77.35;93507.94;5049521;28;19919;-38
2023/03/14 02:49:22;;;;;;;;;;;;;;;-2.00;77.48;93499.19;5049721;28;19959;-38
2023/03/14 02:51:48;;;;;;;;;;;;;;;-1.90;77.79;93508.69;5033146;28;19921;-38
2023/03/14 02:54:14;;;;;;;;;;;;;;;-1.97;76.95;93503.63;5029672;28;19967;-39
2023/03/14 02:56:39;;;;;;;;;;;;;;;-1.99;76.78;93492.53;5055360;28;19913;-39
2023/03/14 02:59:04;;;;;;;;;;;;;;;-2.08;77.63;93487.22;5049439;28;20444;-39
2023/03/14 03:01:30;;;;;;;;;;;;;;;-1.87;78.00;93488.81;5065068;28;19928;-39
2023/03/14 03:03:55;;;;;;;;;;;;;;;-1.82;77.95;93490.84;5049661;28;19917;-39
2023/03/14 03:06:20;;;;;;;;;;;;;;;-1.74;76.68;93489.28;5045408;28;19917;-39
2023/03/14 03:08:45;;;;;;;;;;;;;;;-1.73;76.68;93490.00;5029356;28;19921;-38
2023/03/14 03:11:11;;;;;;;;;;;;;;;-1.82;76.71;93487.41;5028937;28;19913;-38
2023/03/14 03:13:36;;;;;;;;;;;;;;;-2.02;77.59;93479.22;5028873;28;19917;-38
2023/03/14 03:16:01;;;;;;;;;;;;;;;-2.24;78.96;93482.28;5029331;28;19920;-39
2023/03/14 03:18:27;;;;;;;;;;;;;;;-2.14;78.60;93480.25;5029086;28;19967;-38
2023/03/14 03:20:52;;;;;;;;;;;;;;;-2.08;78.30;93481.81;5029218;28;19921;-39
2023/03/14 03:23:17;;;;;;;;;;;;;;;-2.21;78.13;93486.03;5029170;28;19919;-38
2023/03/14 03:25:47;;;;;;;;;;;;;;;-2.16;78.58;93490.75;5029503;28;19944;-38
2023/03/14 03:28:12;;;;;;;;;;;;;;;-2.09;78.38;93488.44;5029624;28;19920;-38
2023/03/14 03:30:41;;;;;;;;;;;;;;;-2.04;78.73;93487.81;5029361;28;19913;-38
2023/03/14 03:33:06;;;;;;;;;;;;;;;-1.97;78.01;93487.41;5032716;28;19995;-38
2023/03/14 03:35:31;;;;;;;;;;;;;;;-2.37;78.93;93495.31;5049314;28;20007;-38
2023/03/14 03:37:57;;;;;;;;;;;;;;;-2.14;78.83;93489.09;5048888;28;20490;-38
2023/03/14 03:40:22;;;;;;;;;;;;;;;-2.38;79.20;93485.72;5049371;28;19923;-38
2023/03/14 03:42:47;;;;;;;;;;;;;;;-2.58;80.31;93494.47;5048903;28;20524;-38
2023/03/14 03:45:12;;;;;;;;;;;;;;;-2.52;80.90;93499.97;5049329;28;19913;-38
2023/03/14 03:47:38;;;;;;;;;;;;;;;-2.55;80.22;93492.78;5049015;28;20042;-38
2023/03/14 03:50:03;;;;;;;;;;;;;;;-2.64;81.05;93498.28;5046984;28;19936;-38
2023/03/14 03:52:28;;;;;;;;;;;;;;;-2.75;81.04;93493.38;5029131;28;19971;-38
2023/03/14 03:54:54;;;;;;;;;;;;;;;-2.52;80.30;93487.22;5028767;28;20320;-38
2023/03/14 03:57:19;;;;;;;;;;;;;;;-2.47;79.32;93488.53;5028742;28;19914;-38
2023/03/14 03:59:45;;;;;;;;;;;;;;;-2.26;78.90;93487.41;5028851;28;19963;-38
2023/03/14 04:02:10;;;;;;;;;;;;;;;-2.25;78.23;93482.75;5029120;28;19928;-38
2023/03/14 04:04:35;;;;;;;;;;;;;;;-2.50;79.67;93482.09;5028748;28;20401;-38
2023/03/14 04:07:00;;;;;;;;;;;;;;;-2.58;79.68;93486.38;5028904;28;19928;-38
2023/03/14 04:09:26;;;;;;;;;;;;;;;-2.62;79.02;93495.84;5029156;28;19924;-38
2023/03/14 04:11:51;;;;;;;;;;;;;;;-2.45;78.57;93480.69;5029041;28;19914;-38
2023/03/14 04:14:16;;;;;;;;;;;;;;;-2.47;77.58;93478.44;5028686;28;19921;-38
2023/03/14 04:16:41;;;;;;;;;;;;;;;-2.44;77.86;93482.91;5028973;28;19914;-38
2023/03/14 04:19:07;;;;;;;;;;;;;;;-2.80;80.10;93468.97;5028579;28;20024;-39
2023/03/14 04:21:32;;;;;;;;;;;;;;;-2.68;80.39;93471.41;5029008;28;19967;-38
2023/03/14 04:23:57;;;;;;;;;;;;;;;-2.77;80.71;93471.50;5031035;28;19915;-38
2023/03/14 04:26:23;;;;;;;;;;;;;;;-2.73;80.72;93471.31;5032638;28;19913;-38
2023/03/14 04:28:48;;;;;;;;;;;;;;;-2.65;81.28;93481.31;5032221;28;19917;-38
2023/03/14 04:31:18;;;;;;;;;;;;;;;-2.60;80.11;93469.84;5032238;28;19913;-38
2023/03/14 04:33:43;;;;;;;;;;;;;;;-2.60;79.68;93456.31;5041115;28;20389;-38
2023/03/14 04:36:09;;;;;;;;;;;;;;;-2.62;79.68;93455.31;5052351;28;19919;-38
2023/03/14 04:38:34;;;;;;;;;;;;;;;-2.63;80.55;93459.22;5052148;28;19921;-38
2023/03/14 04:41:00;;;;;;;;;;;;;;;-2.69;80.87;93456.44;5051954;28;20317;-38
2023/03/14 04:43:25;;;;;;;;;;;;;;;-2.95;80.94;93458.16;5067335;28;19920;-38
2023/03/14 04:45:51;;;;;;;;;;;;;;;-3.14;80.79;93473.72;5052133;28;19927;-38
2023/03/14 04:48:16;;;;;;;;;;;;;;;-3.11;81.44;93463.94;5051743;28;20338;-38
2023/03/14 04:50:42;;;;;;;;;;;;;;;-2.71;79.65;93464.25;5044773;28;19913;-38
2023/03/14 04:53:07;;;;;;;;;;;;;;;-2.97;81.15;93463.25;5031737;28;19917;-38
2023/03/14 04:55:32;;;;;;;;;;;;;;;-3.00;81.58;93464.16;5041143;28;20007;-38
2023/03/14 04:57:58;;;;;;;;;;;;;;;-2.97;81.41;93467.91;5031682;28;19917;-38
2023/03/14 05:00:23;;;;;;;;;;;;;;;-2.90;81.43;93467.56;5031645;28;19922;-38
2023/03/14 05:02:48;;;;;;;;;;;;;;;-2.91;80.83;93469.50;5031519;28;20016;-38
2023/03/14 05:05:14;;;;;;;;;;;;;;;-2.76;80.51;93459.47;5031576;28;19920;-38
2023/03/14 05:07:39;;;;;;;;;;;;;;;-2.93;80.86;93457.66;5031709;28;19967;-39
2023/03/14 05:10:04;;;;;;;;;;;;;;;-2.85;81.85;93464.97;5031911;28;20305;-39
2023/03/14 05:12:30;;;;;;;;;;;;;;;-2.78;81.47;93471.97;5031642;28;20099;-38
2023/03/14 05:14:55;;;;;;;;;;;;;;;-2.77;80.56;93471.50;5031409;28;20007;-38
2023/03/14 05:17:20;;;;;;;;;;;;;;;-2.59;79.68;93476.75;5031338;28;19925;-38
2023/03/14 05:19:46;;;;;;;;;;;;;;;-2.49;78.64;93475.44;5031243;28;19921;-38
2023/03/14 05:22:11;;;;;;;;;;;;;;;-2.50;78.67;93470.50;5031280;28;19944;-38
2023/03/14 05:24:36;;;;;;;;;;;;;;;-2.71;80.16;93466.22;5031381;28;19924;-38
2023/03/14 05:27:02;;;;;;;;;;;;;;;-2.94;81.53;93469.66;5031194;28;19936;-38
2023/03/14 05:29:27;;;;;;;;;;;;;;;-2.85;81.53;93464.19;5031399;28;19975;-38
2023/03/14 05:31:52;;;;;;;;;;;;;;;-2.80;82.23;93467.03;5031106;28;19913;-38
2023/03/14 05:34:18;;;;;;;;;;;;;;;-2.47;80.71;93462.22;5044514;28;20369;-38
2023/03/14 05:36:43;;;;;;;;;;;;;;;-2.39;79.57;93471.47;5050413;28;19948;-38
2023/03/14 05:39:08;;;;;;;;;;;;;;;-2.48;80.17;93465.38;5051081;28;19917;-39
2023/03/14 05:41:34;;;;;;;;;;;;;;;-2.37;81.92;93462.88;5050834;28;20397;-38
2023/03/14 05:43:59;;;;;;;;;;;;;;;-2.22;81.04;93460.94;5050737;28;19925;-39
2023/03/14 05:46:24;;;;;;;;;;;;;;;-2.15;80.88;93455.16;5050757;28;20015;-39
2023/03/14 05:48:49;;;;;;;;;;;;;;;-2.10;81.17;93461.88;5037574;28;19917;-38
2023/03/14 05:51:15;;;;;;;;;;;;;;;-1.97;81.53;93456.91;5030796;28;19921;-38
2023/03/14 05:53:40;;;;;;;;;;;;;;;-1.93;79.90;93460.19;5030704;28;19917;-38
2023/03/14 05:56:05;;;;;;;;;;;;;;;-1.71;79.01;93465.94;5040106;28;20393;-38
2023/03/14 05:58:31;;;;;;;;;;;;;;;-1.73;79.58;93468.34;5030612;28;19925;-38
2023/03/14 06:00:56;;;;;;;;;;;;;;;-1.62;78.70;93455.72;5030426;28;20514;-38
2023/03/14 06:03:21;;;;;;;;;;;;;;;-1.44;78.49;93456.72;5030766;28;19924;-38
2023/03/14 06:05:49;;;;;;;;;;;;;;;-1.48;77.32;93446.09;5030464;28;20456;-38
2023/03/14 06:08:14;;;;;;;;;;;;;;;-1.30;77.29;93439.69;5030629;28;19913;-38
2023/03/14 06:10:39;;;;;;;;;;;;;;;-1.00;77.60;93446.47;5030219;28;19935;-38
2023/03/14 06:13:05;;;;;;;;;;;;;;;-0.57;76.01;93444.72;5030354;28;19920;-39
2023/03/14 06:15:30;;;;;;;;;;;;;;;0.45;72.31;93444.66;5030600;28;19917;-38
2023/03/14 06:17:55;;;;;;;;;;;;;;;1.48;68.56;93444.16;5030191;28;19923;-38
2023/03/14 06:20:21;;;;;;;;;;;;;;;2.52;65.66;93440.03;5030138;28;19921;-39
2023/03/14 06:22:46;;;;;;;;;;;;;;;3.68;62.26;93442.41;5030056;28;19923;-39
2023/03/14 06:25:11;;;;;;;;;;;;;;;4.73;56.18;93431.97;5029962;28;20016;-39
2023/03/14 06:27:37;;;;;;;;;;;;;;;5.21;53.86;93440.97;5030028;28;19917;-39
2023/03/14 06:30:02;;;;;;;;;;;;;;;5.59;52.95;93433.53;5030024;28;19917;-39
2023/03/14 06:32:28;;;;;;;;;;;;;;;6.38;51.09;93433.97;5029928;28;19920;-39
2023/03/14 06:34:53;;;;;;;;;;;;;;;7.29;48.44;93434.19;5048612;28;20387;-37
2023/03/14 06:37:18;;;;;;;;;;;;;;;8.15;46.67;93436.91;5049965;28;19934;-38
2023/03/14 06:39:44;;;;;;;;;;;;;;;8.98;44.51;93428.75;5049688;28;20411;-39
2023/03/14 06:42:09;;;;;;;;;;;;;;;10.00;42.75;93418.69;5050001;28;19966;-39
2023/03/14 06:44:34;;;;;;;;;;;;;;;11.17;40.17;93418.56;5040764;28;19972;-39
2023/03/14 06:47:00;;;;;;;;;;;;;;;12.23;36.45;93424.63;5029875;28;19917;-38
2023/03/14 06:49:25;;;;;;;;;;;;;;;12.47;35.03;93417.69;5029620;28;20339;-39
2023/03/14 06:51:50;;;;;;;;;;;;;;;13.67;31.49;93404.97;5029608;28;19924;-39
2023/03/14 06:54:16;;;;;;;;;;;;;;;12.06;31.62;93407.91;5029423;28;19913;-39
2023/03/14 06:56:41;;;;;;;;;;;;;;;12.40;30.79;93408.13;5038822;28;19917;-38
2023/03/14 06:59:06;;;;;;;;;;;;;;;12.60;30.15;93400.81;5029502;28;20412;-39
2023/03/14 07:01:34;;;;;;;;;;;;;;;13.28;29.45;93409.38;5029730;28;19964;-38
2023/03/14 07:04:00;;;;;;;;;;;;;;;12.80;30.03;93394.19;5029592;28;20006;-39
2023/03/14 07:06:25;;;;;;;;;;;;;;;13.80;29.12;93395.56;5029276;28;20417;-39
2023/03/14 07:08:51;;;;;;;;;;;;;;;14.46;29.58;93400.19;5029155;28;19921;-39
2023/03/14 07:11:16;;;;;;;;;;;;;;;14.58;28.38;93401.13;5029551;28;19960;-39
2023/03/14 07:13:41;;;;;;;;;;;;;;;15.56;26.99;93385.75;5029410;28;19917;-39
2023/03/14 07:16:07;;;;;;;;;;;;;;;14.83;27.98;93390.63;5029441;28;19947;-38
2023/03/14 07:18:32;;;;;;;;;;;;;;;15.04;26.76;93397.16;5028900;28;19928;-38
2023/03/14 07:20:58;;;;;;;;;;;;;;;15.17;26.07;93393.25;5029303;28;19979;-39
2023/03/14 07:23:23;;;;;;;;;;;;;;;16.17;25.32;93396.50;5028993;28;19920;-39
2023/03/14 07:25:48;;;;;;;;;;;;;;;15.48;24.90;93385.16;5028860;28;19913;-39
2023/03/14 07:28:14;;;;;;;;;;;;;;;15.66;24.67;93381.66;5029079;28;19920;-39
2023/03/14 07:30:39;;;;;;;;;;;;;;;17.06;24.13;93384.03;5029051;28;20439;-39
2023/03/14 07:33:05;;;;;;;;;;;;;;;16.57;24.40;93377.13;5032206;28;20561;-39
2023/03/14 07:35:30;;;;;;;;;;;;;;;16.37;23.81;93378.47;5048964;28;19952;-39
2023/03/14 07:37:55;;;;;;;;;;;;;;;16.65;24.97;93384.00;5048995;28;19913;-39
2023/03/14 07:40:21;;;;;;;;;;;;;;;17.18;23.86;93382.06;5043851;28;19929;-39
2023/03/14 07:42:46;;;;;;;;;;;;;;;16.57;24.09;93372.28;5028691;28;19943;-37
2023/03/14 07:45:11;;;;;;;;;;;;;;;17.89;23.56;93370.81;5028771;28;19924;-39
2023/03/14 07:47:37;;;;;;;;;;;;;;;17.20;23.23;93377.38;5028641;28;19953;-39
2023/03/14 07:50:03;;;;;;;;;;;;;;;18.85;23.18;93376.34;5028665;28;19917;-39
2023/03/14 07:52:28;;;;;;;;;;;;;;;20.91;20.43;93363.94;5028953;28;19943;-39
2023/03/14 07:54:53;;;;;;;;;;;;;;;21.00;19.69;93365.81;5028808;28;20008;-39
2023/03/14 07:57:19;;;;;;;;;;;;;;;20.83;18.89;93355.81;5028598;28;20381;-39
2023/03/14 07:59:44;;;;;;;;;;;;;;;18.59;21.30;93349.50;5032150;28;19921;-39
2023/03/14 08:02:12;;;;;;;;;;;;;;;18.37;21.62;93348.81;5032963;28;20454;-39
2023/03/14 08:04:38;;;;;;;;;;;;;;;19.59;21.93;93341.72;5032490;28;19924;-38
2023/03/14 08:07:03;;;;;;;;;;;;;;;19.70;19.78;93337.44;5032632;28;19913;-39
2023/03/14 08:09:29;;;;;;;;;;;;;;;18.70;20.01;93334.84;5032633;28;20298;-38
2023/03/14 08:11:54;;;;;;;;;;;;;;;18.70;20.10;93338.38;5032678;28;19917;-38
2023/03/14 08:14:19;;;;;;;;;;;;;;;17.71;21.57;93342.44;5032732;28;19913;-38
2023/03/14 08:16:45;;;;;;;;;;;;;;;18.76;20.05;93335.94;5032296;28;20385;-38
2023/03/14 08:19:10;;;;;;;;;;;;;;;18.17;20.31;93342.66;5032632;28;20004;-38
2023/03/14 08:21:35;;;;;;;;;;;;;;;16.84;22.11;93344.19;5032291;28;20488;-38
2023/03/14 08:24:00;;;;;;;;;;;;;;;17.99;21.53;93343.56;5032203;28;19925;-38
2023/03/14 08:26:26;;;;;;;;;;;;;;;18.68;20.36;93338.25;5032170;28;19920;-39
2023/03/14 08:28:51;;;;;;;;;;;;;;;18.64;20.17;93343.59;5032404;28;19943;-38
2023/03/14 08:31:16;;;;;;;;;;;;;;;18.68;19.23;93337.50;5031962;28;19982;-38
2023/03/14 08:33:42;;;;;;;;;;;;;;;18.60;20.45;93337.00;5040963;28;19967;-38
2023/03/14 08:36:07;;;;;;;;;;;;;;;19.88;18.85;93343.38;5051285;28;19913;-38
2023/03/14 08:38:32;;;;;;;;;;;;;;;19.57;18.66;93333.19;5032034;28;19917;-38
2023/03/14 08:40:58;;;;;;;;;;;;;;;20.55;18.04;93331.06;5031912;28;19917;-38
2023/03/14 08:43:24;;;;;;;;;;;;;;;19.58;19.33;93336.69;5032128;28;19971;-38
2023/03/14 08:45:49;;;;;;;;;;;;;;;19.45;19.91;93332.47;5031933;28;20401;-39
2023/03/14 08:48:14;;;;;;;;;;;;;;;20.27;18.46;93316.22;5032095;28;19971;-39
2023/03/14 08:50:39;;;;;;;;;;;;;;;19.03;20.35;93329.16;5031910;28;20349;-39
2023/03/14 08:53:05;;;;;;;;;;;;;;;20.60;17.69;93324.31;5032012;28;19966;-38
2023/03/14 08:55:30;;;;;;;;;;;;;;;20.21;18.11;93324.25;5040905;28;20440;-38
2023/03/14 08:57:55;;;;;;;;;;;;;;;18.95;19.68;93317.50;5031858;28;19921;-39
2023/03/14 09:00:21;;;;;;;;;;;;;;;19.48;20.43;93314.44;5031613;28;19959;-38
2023/03/14 09:02:46;;;;;;;;;;;;;;;20.44;18.71;93310.16;5031560;28;19968;-38
2023/03/14 09:05:11;;;;;;;;;;;;;;;20.24;18.39;93309.75;5031550;28;19917;-38
2023/03/14 09:07:37;;;;;;;;;;;;;;;21.55;18.37;93310.50;5031680;28;19920;-38
2023/03/14 09:10:03;;;;;;;;;;;;;;;20.82;18.03;93305.91;5030556;28;19940;-38
2023/03/14 09:12:28;;;;;;;;;;;;;;;20.01;20.43;93297.88;5031575;28;20022;-38
2023/03/14 09:14:53;;;;;;;;;;;;;;;20.02;19.87;93297.25;5031281;28;19928;-39
2023/03/14 09:17:18;;;;;;;;;;;;;;;21.37;19.96;93313.09;5031167;28;19917;-38
2023/03/14 09:19:44;;;;;;;;;;;;;;;22.51;18.50;93298.44;5031140;28;20008;-38
2023/03/14 09:22:09;;;;;;;;;;;;;;;21.03;19.03;93308.47;5031317;28;19971;-39
2023/03/14 09:24:34;;;;;;;;;;;;;;;19.99;19.26;93292.16;5031258;28;19963;-39
2023/03/14 09:27:00;;;;;;;;;;;;;;;19.04;19.97;93289.38;5031016;28;20423;-38
2023/03/14 09:29:25;;;;;;;;;;;;;;;18.81;21.18;93292.16;5030966;28;19913;-39
2023/03/14 09:31:50;;;;;;;;;;;;;;;19.77;19.39;93277.63;5030609;28;19924;-38
2023/03/14 09:34:16;;;;;;;;;;;;;;;20.30;18.99;93278.50;5044172;28;19923;-38
2023/03/14 09:36:44;;;;;;;;;;;;;;;20.73;18.40;93270.34;5050607;28;19920;-38
2023/03/14 09:39:09;;;;;;;;;;;;;;;20.25;18.44;93271.22;5051026;28;19921;-38
2023/03/14 09:41:35;;;;;;;;;;;;;;;20.45;19.05;93258.31;5050862;28;19962;-38
2023/03/14 09:44:02;;;;;;;;;;;;;;;20.19;18.85;93242.81;5066086;28;20442;-38
2023/03/14 09:46:28;;;;;;;;;;;;;;;19.89;18.61;93241.13;5066339;28;19920;-38
2023/03/14 09:48:54;;;;;;;;;;;;;;;19.98;21.33;93245.84;5050718;28;19917;-38
2023/03/14 09:51:21;;;;;;;;;;;;;;;19.63;19.16;93243.91;5050540;28;20400;-38
2023/03/14 09:53:47;;;;;;;;;;;;;;;19.01;20.07;93240.25;5050439;28;19975;-38
2023/03/14 09:56:24;;;;;;;;;;;;;;;18.62;22.00;93244.84;5050428;28;19920;-38
2023/03/14 09:58:59;;;;;;;;;;;;;;;19.57;19.87;93228.84;5050597;28;20381;-38
2023/03/14 10:01:26;;;;;;;;;;;;;;;19.79;19.52;93230.09;5050460;28;20412;-38
2023/03/14 10:03:51;;;;;;;;;;;;;;;19.95;20.05;93224.66;5050533;28;20370;-39
2023/03/14 10:06:17;;;;;;;;;;;;;;;20.18;19.62;93216.16;5046542;28;19917;-38
2023/03/14 10:08:43;;;;;;;;;;;;;;;20.56;18.84;93207.03;5030219;28;19916;-38
2023/03/14 10:11:17;;;;;;;;;;;;;;;20.42;19.46;93197.88;5045845;28;19996;-38
2023/03/14 10:13:48;;;;;;;;;;;;;;;19.81;19.73;93199.41;5030495;28;19916;-38
2023/03/14 10:16:14;;;;;;;;;;;;;;;19.21;19.76;93193.84;5030031;28;20706;-38
2023/03/14 10:18:39;;;;;;;;;;;;;;;19.24;20.49;93187.03;5030201;28;19925;-38
2023/03/14 10:21:06;;;;;;;;;;;;;;;19.50;21.46;93180.16;5045130;28;20337;-38
2023/03/14 10:23:32;;;;;;;;;;;;;;;19.14;21.14;93174.50;5030030;28;19917;-39
2023/03/14 10:26:00;;;;;;;;;;;;;;;18.41;21.13;93175.03;5030068;28;19913;-38
2023/03/14 10:28:25;;;;;;;;;;;;;;;19.03;22.21;93167.59;5029777;28;19913;-38
2023/03/14 10:30:51;;;;;;;;;;;;;;;19.94;21.42;93155.97;5029361;28;19992;-38
2023/03/14 10:33:20;;;;;;;;;;;;;;;20.01;19.85;93154.97;5035278;28;20417;-38
2023/03/14 10:35:46;;;;;;;;;;;;;;;20.03;20.09;93149.47;5049614;28;19920;-38
2023/03/14 10:38:16;;;;;;;;;;;;;;;20.67;19.50;93147.31;5065150;28;19920;-38
2023/03/14 10:40:49;;;;;;;;;;;;;;;21.01;18.95;93137.09;5049580;28;20073;-38
2023/03/14 10:43:15;;;;;;;;;;;;;;;20.02;19.16;93133.97;5049595;28;20432;-38
2023/03/14 10:45:44;;;;;;;;;;;;;;;20.17;19.35;93136.19;5049508;28;19986;-38
2023/03/14 10:48:37;;;;;;;;;;;;;;;20.16;20.42;93131.94;5064965;28;19916;-38
2023/03/14 10:51:11;;;;;;;;;;;;;;;19.21;20.57;93120.34;5039290;28;20051;-38
2023/03/14 10:53:41;;;;;;;;;;;;;;;19.83;20.49;93117.53;5029739;28;19920;-38
2023/03/14 10:56:07;;;;;;;;;;;;;;;18.85;20.10;93111.31;5035411;28;19913;-38
2023/03/14 10:58:37;;;;;;;;;;;;;;;18.59;22.06;93106.97;5049203;28;19977;-39
2023/03/14 11:01:06;;;;;;;;;;;;;;;19.51;21.08;93094.78;5064633;28;19924;-39
2023/03/14 11:03:32;;;;;;;;;;;;;;;19.68;20.45;93102.72;5049180;28;20002;-38
2023/03/14 11:06:10;;;;;;;;;;;;;;;19.30;21.92;93092.19;5048162;28;19963;-38
2023/03/14 11:08:37;;;;;;;;;;;;;;;20.67;20.23;93093.28;5044311;28;19917;-38
2023/03/14 11:11:23;;;;;;;;;;;;;;;19.36;19.70;93086.94;5044431;28;20024;-38
2023/03/14 11:14:07;;;;;;;;;;;;;;;18.53;20.57;93067.50;5028963;28;20011;-38
2023/03/14 11:16:45;;;;;;;;;;;;;;;18.28;21.71;93056.19;5044401;28;19924;-38
2023/03/14 11:19:13;;;;;;;;;;;;;;;17.49;22.67;93063.88;5029140;28;19928;-38
2023/03/14 11:21:41;;;;;;;;;;;;;;;18.19;20.78;93060.56;5029382;28;19913;-38
2023/03/14 11:24:16;;;;;;;;;;;;;;;18.25;21.05;93056.69;5029247;28;19972;-38
2023/03/14 11:26:44;;;;;;;;;;;;;;;18.14;20.24;93053.28;5028937;28;19921;-38
2023/03/14 11:29:21;;;;;;;;;;;;;;;18.23;19.98;93051.69;5029516;28;20427;-38
2023/03/14 11:31:47;;;;;;;;;;;;;;;18.08;20.99;93036.13;5029122;28;19927;-39
2023/03/14 11:34:24;;;;;;;;;;;;;;;17.47;21.97;93033.06;5041185;28;19916;-39
2023/03/14 11:36:49;;;;;;;;;;;;;;;17.54;21.70;93037.72;5049279;28;19913;-38
2023/03/14 11:39:15;;;;;;;;;;;;;;;18.25;20.63;93034.31;5049245;28;20420;-38
2023/03/14 11:41:42;;;;;;;;;;;;;;;18.09;20.41;93011.72;5064757;28;19974;-38
2023/03/14 11:44:19;;;;;;;;;;;;;;;18.28;20.16;93019.13;5064472;28;19960;-38
2023/03/14 11:46:52;;;;;;;;;;;;;;;18.11;20.36;93004.22;5048951;28;19912;-38
2023/03/14 11:49:30;;;;;;;;;;;;;;;17.52;21.10;92999.22;5064713;28;20308;-38
2023/03/14 11:51:57;;;;;;;;;;;;;;;17.34;21.34;92992.50;5031707;28;19951;-38
2023/03/14 11:54:46;;;;;;;;;;;;;;;17.87;20.53;92993.66;5044195;28;19956;-38
2023/03/14 11:57:12;;;;;;;;;;;;;;;17.54;20.89;92977.03;5043974;28;20387;-38
2023/03/14 11:59:58;;;;;;;;;;;;;;;17.62;20.89;92985.16;5048488;28;19964;-38
2023/03/14 12:02:29;;;;;;;;;;;;;;;17.37;20.76;92968.97;5048905;28;19917;-38
2023/03/14 12:04:55;;;;;;;;;;;;;;;16.63;22.03;92962.97;5048697;28;19917;-38
2023/03/14 12:07:25;;;;;;;;;;;;;;;15.93;23.38;92955.56;5036683;28;20479;-38
2023/03/14 12:09:50;;;;;;;;;;;;;;;16.12;23.15;92951.91;5029091;28;19917;-38
2023/03/14 12:12:19;;;;;;;;;;;;;;;16.55;23.62;92936.63;5028733;28;20437;-38
2023/03/14 12:14:45;;;;;;;;;;;;;;;17.32;24.04;92945.69;5043983;28;19917;-38
2023/03/14 12:17:20;;;;;;;;;;;;;;;17.33;21.22;92935.97;5044011;28;19921;-38
2023/03/14 12:19:46;;;;;;;;;;;;;;;16.80;22.79;92927.75;5028576;28;20032;-38
2023/03/14 12:22:25;;;;;;;;;;;;;;;17.25;22.74;92924.31;5028803;28;19948;-38
2023/03/14 12:24:59;;;;;;;;;;;;;;;17.01;23.05;92927.66;5044128;28;20552;-38
2023/03/14 12:27:43;;;;;;;;;;;;;;;17.43;23.35;92919.13;5028424;28;19913;-38
2023/03/14 12:30:29;;;;;;;;;;;;;;;17.54;22.62;92912.84;5028444;28;20381;-38
2023/03/14 12:33:10;;;;;;;;;;;;;;;16.73;22.49;92898.75;5030153;28;19914;-38
2023/03/14 12:35:49;;;;;;;;;;;;;;;16.48;23.22;92904.84;5048236;28;20412;-38
2023/03/14 12:38:23;;;;;;;;;;;;;;;16.32;23.23;92908.66;5048087;28;19917;-38
2023/03/14 12:41:08;;;;;;;;;;;;;;;16.35;23.02;92896.31;5048167;28;20434;-38
2023/03/14 12:43:34;;;;;;;;;;;;;;;16.10;23.83;92899.59;5048092;28;20364;-38
2023/03/14 12:46:16;;;;;;;;;;;;;;;16.17;24.50;92884.00;5052135;28;19917;-38